Time;durP1;ratioP1;P1;durP2;ratioP2;P2;SDS_P1;SDS_P2;PMS_P1;PMS_P2;Temp;Humidity;BMP_temperature;BMP_pressure;BME280_temperature;BME280_humidity;BME280_pressure;Samples;Min_cycle;Max_cycle;Signal;HPM_P1;HPM_P2
2022/06/17 00:00:20;;;;;;;;;;;26.40;46.10;;;;;;1601666;73;1027;-57
2022/06/17 00:02:21;;;;;;;;;;;26.40;46.00;;;;;;1589936;73;728;-59
2022/06/17 00:04:23;;;;;;;;;;;26.40;46.10;;;;;;1586134;73;690;-56
2022/06/17 00:06:26;;;;;;;;;;;26.40;46.10;;;;;;1596691;73;1155;-58
2022/06/17 00:08:29;;;;;;;;;;;26.40;46.10;;;;;;1592736;73;1716;-57
2022/06/17 00:10:31;;;;;;;;;;;26.40;46.10;;;;;;1600797;73;737;-59
2022/06/17 00:12:33;;;;;;;;;;;26.30;46.10;;;;;;1599565;73;638;-60
2022/06/17 00:15:11;;;;;;;;;;;26.30;46.10;;;;;;1589500;73;695;-58
2022/06/17 00:16:39;;;;;;;;;;;26.40;46.10;;;;;;1590590;73;1899;-59
2022/06/17 00:18:41;;;;;;;;;;;26.30;46.10;;;;;;1595484;73;713;-57
2022/06/17 00:20:43;;;;;;;;;;;26.30;46.10;;;;;;1590369;73;1560;-56
2022/06/17 00:22:44;;;;;;;;;;;26.40;46.10;;;;;;1587385;73;778;-58
2022/06/17 00:24:48;;;;;;;;;;;26.40;46.10;;;;;;1585324;73;765;-59
2022/06/17 00:26:50;;;;;;;;;;;26.40;46.00;;;;;;1596471;73;1841;-59
2022/06/17 00:28:52;;;;;;;;;;;26.40;46.10;;;;;;1588856;73;741;-57
2022/06/17 00:30:54;;;;;;;;;;;26.30;46.10;;;;;;1595924;74;747;-57
2022/06/17 00:32:56;;;;;;;;;;;26.30;46.00;;;;;;1587726;73;783;-57
2022/06/17 00:34:58;;;;;;;;;;;26.30;46.20;;;;;;1591618;73;1585;-58
2022/06/17 00:37:00;;;;;;;;;;;26.40;46.10;;;;;;1600632;73;1931;-58
2022/06/17 00:39:03;;;;;;;;;;;26.40;46.20;;;;;;1584901;73;659;-58
2022/06/17 00:41:13;;;;;;;;;;;26.40;46.20;;;;;;1594534;73;760;-58
2022/06/17 00:43:22;;;;;;;;;;;26.40;46.20;;;;;;1598425;73;1549;-57
2022/06/17 00:45:28;;;;;;;;;;;26.40;46.20;;;;;;1588045;73;1960;-60
2022/06/17 00:47:31;;;;;;;;;;;26.30;46.20;;;;;;1590344;73;1082;-59
2022/06/17 00:49:34;;;;;;;;;;;26.30;46.20;;;;;;1597915;73;1583;-59
2022/06/17 00:51:38;;;;;;;;;;;26.40;46.20;;;;;;1586841;73;1865;-57
2022/06/17 00:53:41;;;;;;;;;;;26.30;46.20;;;;;;1576235;73;1709;-60
2022/06/17 00:55:44;;;;;;;;;;;26.30;46.10;;;;;;1589469;73;1933;-58
2022/06/17 00:57:46;;;;;;;;;;;26.40;46.20;;;;;;1562668;73;1089;-60
2022/06/17 01:00:06;;;;;;;;;;;26.30;46.10;;;;;;1570191;73;758;-60
2022/06/17 01:02:09;;;;;;;;;;;26.40;46.20;;;;;;1577870;73;687;-60
2022/06/17 01:04:11;;;;;;;;;;;26.30;46.10;;;;;;1571338;73;1585;-60
2022/06/17 01:06:14;;;;;;;;;;;26.40;46.00;;;;;;1578526;73;1174;-60
2022/06/17 01:09:56;;;;;;;;;;;26.30;46.10;;;;;;1579012;73;811;-57
2022/06/17 01:10:21;;;;;;;;;;;26.30;46.00;;;;;;1574282;73;2011;-56
2022/06/17 01:12:23;;;;;;;;;;;26.40;46.00;;;;;;1583795;73;688;-58
2022/06/17 01:14:25;;;;;;;;;;;26.30;46.00;;;;;;1576789;73;777;-59
2022/06/17 01:16:31;;;;;;;;;;;26.30;46.00;;;;;;1578914;73;1965;-57
2022/06/17 01:18:35;;;;;;;;;;;26.30;46.00;;;;;;1585837;73;1543;-58
2022/06/17 01:20:37;;;;;;;;;;;26.30;46.00;;;;;;1561097;73;670;-59
2022/06/17 01:22:39;;;;;;;;;;;26.30;46.00;;;;;;1559913;73;645;-57
2022/06/17 01:24:42;;;;;;;;;;;26.30;46.00;;;;;;1590850;73;652;-58
2022/06/17 01:26:44;;;;;;;;;;;26.30;46.00;;;;;;1561301;73;1141;-57
2022/06/17 01:28:46;;;;;;;;;;;26.30;46.00;;;;;;1567710;73;647;-57
2022/06/17 01:30:54;;;;;;;;;;;26.30;46.00;;;;;;1570214;73;665;-60
2022/06/17 01:33:00;;;;;;;;;;;26.30;46.00;;;;;;1576535;73;1798;-59
2022/06/17 01:35:03;;;;;;;;;;;26.30;46.00;;;;;;1586952;73;757;-57
2022/06/17 01:37:05;;;;;;;;;;;26.30;46.00;;;;;;1577467;73;1919;-57
2022/06/17 01:39:06;;;;;;;;;;;26.30;45.90;;;;;;1566794;73;802;-57
2022/06/17 01:41:08;;;;;;;;;;;26.30;46.00;;;;;;1580420;73;677;-60
2022/06/17 01:43:11;;;;;;;;;;;26.30;46.00;;;;;;1581735;73;888;-60
2022/06/17 01:45:12;;;;;;;;;;;26.30;46.00;;;;;;1577990;73;1549;-60
2022/06/17 01:47:18;;;;;;;;;;;26.30;45.90;;;;;;1564940;73;1129;-60
2022/06/17 01:49:22;;;;;;;;;;;26.30;46.00;;;;;;1579353;73;745;-59
2022/06/17 01:51:24;;;;;;;;;;;26.30;45.90;;;;;;1581635;73;1447;-57
2022/06/17 01:53:27;;;;;;;;;;;26.30;46.00;;;;;;1562453;73;799;-58
2022/06/17 01:55:39;;;;;;;;;;;26.30;46.00;;;;;;1580732;73;696;-57
2022/06/17 01:57:46;;;;;;;;;;;26.30;45.90;;;;;;1581958;74;2020;-59
2022/06/17 01:59:49;;;;;;;;;;;26.30;45.90;;;;;;1569342;73;1664;-60
2022/06/17 02:01:52;;;;;;;;;;;26.30;46.00;;;;;;1578781;73;688;-58
2022/06/17 02:03:59;;;;;;;;;;;26.30;46.00;;;;;;1584161;74;755;-56
2022/06/17 02:06:05;;;;;;;;;;;26.30;46.00;;;;;;1586331;74;1158;-58
2022/06/17 02:08:07;;;;;;;;;;;26.30;46.00;;;;;;1577587;74;1854;-57
2022/06/17 02:10:09;;;;;;;;;;;26.30;46.00;;;;;;1588706;74;667;-57
2022/06/17 02:12:11;;;;;;;;;;;26.20;46.10;;;;;;1581358;74;746;-58
2022/06/17 02:14:13;;;;;;;;;;;26.30;46.10;;;;;;1586804;73;1545;-60
2022/06/17 02:16:15;;;;;;;;;;;26.30;46.10;;;;;;1586723;74;1936;-60
2022/06/17 02:18:17;;;;;;;;;;;26.30;46.10;;;;;;1543403;76;841;-59
2022/06/17 02:20:19;;;;;;;;;;;26.30;46.10;;;;;;1523516;76;709;-59
2022/06/17 02:22:25;;;;;;;;;;;26.30;46.10;;;;;;1542283;76;718;-60
2022/06/17 02:24:26;;;;;;;;;;;26.30;46.10;;;;;;1594414;73;1751;-58
2022/06/17 02:26:28;;;;;;;;;;;26.20;46.10;;;;;;1593251;73;1116;-58
2022/06/17 02:28:30;;;;;;;;;;;26.30;46.10;;;;;;1595583;73;1552;-57
2022/06/17 02:30:31;;;;;;;;;;;26.30;46.20;;;;;;1555234;75;733;-59
2022/06/17 02:32:33;;;;;;;;;;;26.30;46.00;;;;;;1597943;73;674;-59
2022/06/17 02:34:36;;;;;;;;;;;26.30;46.10;;;;;;1596602;73;688;-57
2022/06/17 02:36:43;;;;;;;;;;;26.30;46.10;;;;;;1588862;73;1937;-60
2022/06/17 02:38:45;;;;;;;;;;;26.30;46.20;;;;;;1591273;73;1799;-58
2022/06/17 02:40:48;;;;;;;;;;;26.30;46.00;;;;;;1596925;73;910;-56
2022/06/17 02:42:50;;;;;;;;;;;26.30;46.00;;;;;;1589069;73;1702;-59
2022/06/17 02:44:53;;;;;;;;;;;26.30;46.00;;;;;;1595965;73;747;-57
2022/06/17 02:46:55;;;;;;;;;;;26.30;46.10;;;;;;1603915;73;1142;-60
2022/06/17 02:48:59;;;;;;;;;;;26.30;46.00;;;;;;1586397;73;768;-59
2022/06/17 02:51:01;;;;;;;;;;;26.30;46.10;;;;;;1603790;73;1790;-59
2022/06/17 02:53:03;;;;;;;;;;;26.30;46.10;;;;;;1587234;73;738;-60
2022/06/17 02:55:06;;;;;;;;;;;26.30;46.10;;;;;;1590680;73;682;-58
2022/06/17 02:57:09;;;;;;;;;;;26.20;46.10;;;;;;1595509;73;1941;-60
2022/06/17 02:59:28;;;;;;;;;;;26.30;46.20;;;;;;1601354;73;763;-59
2022/06/17 03:01:34;;;;;;;;;;;26.30;46.10;;;;;;1598316;73;742;-59
2022/06/17 03:03:36;;;;;;;;;;;26.30;46.10;;;;;;1591212;73;803;-58
2022/06/17 03:05:38;;;;;;;;;;;26.30;46.10;;;;;;1588167;73;701;-59
2022/06/17 03:07:40;;;;;;;;;;;26.30;46.10;;;;;;1596146;73;1188;-59
2022/06/17 03:09:43;;;;;;;;;;;26.30;46.10;;;;;;1596022;73;1372;-59
2022/06/17 03:12:04;;;;;;;;;;;26.30;46.20;;;;;;1588571;72;595;-57
2022/06/17 03:14:06;;;;;;;;;;;26.30;46.10;;;;;;1552521;75;761;-57
2022/06/17 03:16:09;;;;;;;;;;;26.30;46.00;;;;;;1548974;75;1185;-59
2022/06/17 03:18:11;;;;;;;;;;;26.40;46.00;;;;;;1541887;75;1964;-57
2022/06/17 03:20:15;;;;;;;;;;;26.30;46.00;;;;;;1537018;75;673;-60
2022/06/17 03:22:16;;;;;;;;;;;26.30;46.00;;;;;;1547887;75;1792;-59
2022/06/17 03:24:26;;;;;;;;;;;26.40;46.00;;;;;;1546758;75;1569;-60
2022/06/17 03:26:30;;;;;;;;;;;26.30;46.00;;;;;;1531328;75;1154;-58
2022/06/17 03:28:39;;;;;;;;;;;26.30;46.00;;;;;;1543144;75;704;-58
2022/06/17 03:30:43;;;;;;;;;;;26.30;46.00;;;;;;1522246;75;699;-57
2022/06/17 03:32:45;;;;;;;;;;;26.30;45.90;;;;;;1540288;76;749;-58
2022/06/17 03:34:48;;;;;;;;;;;26.30;45.90;;;;;;1552633;75;769;-56
2022/06/17 03:36:52;;;;;;;;;;;26.30;46.00;;;;;;1557278;75;1936;-59
2022/06/17 03:38:58;;;;;;;;;;;26.30;46.00;;;;;;1539071;75;1564;-56
2022/06/17 03:41:04;;;;;;;;;;;26.30;46.00;;;;;;1529749;75;671;-58
2022/06/17 03:43:07;;;;;;;;;;;26.30;45.90;;;;;;1533971;76;692;-59
2022/06/17 03:45:16;;;;;;;;;;;26.30;45.90;;;;;;1542543;75;746;-58
2022/06/17 03:47:20;;;;;;;;;;;26.30;45.90;;;;;;1532893;76;1138;-60
2022/06/17 03:49:26;;;;;;;;;;;26.30;45.90;;;;;;1532523;75;680;-58
2022/06/17 03:51:28;;;;;;;;;;;26.30;45.80;;;;;;1536205;75;684;-60
2022/06/17 03:53:31;;;;;;;;;;;26.40;45.80;;;;;;1531126;75;1438;-58
2022/06/17 03:55:33;;;;;;;;;;;26.30;45.80;;;;;;1539712;75;679;-57
2022/06/17 03:57:35;;;;;;;;;;;26.30;45.80;;;;;;1542859;75;1942;-56
2022/06/17 03:59:37;;;;;;;;;;;26.30;45.90;;;;;;1538412;75;655;-57
2022/06/17 04:01:39;;;;;;;;;;;26.30;45.90;;;;;;1544995;75;711;-59
2022/06/17 04:03:42;;;;;;;;;;;26.30;45.90;;;;;;1529721;75;822;-59
2022/06/17 04:05:44;;;;;;;;;;;26.30;46.00;;;;;;1530711;75;1616;-58
2022/06/17 04:07:46;;;;;;;;;;;26.30;46.00;;;;;;1546070;75;700;-56
2022/06/17 04:09:50;;;;;;;;;;;26.30;46.00;;;;;;1547781;75;672;-56
2022/06/17 04:11:54;;;;;;;;;;;26.20;46.00;;;;;;1540108;75;1838;-59
2022/06/17 04:13:57;;;;;;;;;;;26.20;46.00;;;;;;1542502;75;782;-57
2022/06/17 04:16:15;;;;;;;;;;;26.20;46.00;;;;;;1544407;75;1166;-57
2022/06/17 04:18:17;;;;;;;;;;;26.20;46.00;;;;;;1544580;75;1937;-58
2022/06/17 04:20:36;;;;;;;;;;;26.20;46.00;;;;;;1550740;75;1574;-57
2022/06/17 04:22:37;;;;;;;;;;;26.20;46.00;;;;;;1557742;75;674;-60
2022/06/17 04:24:39;;;;;;;;;;;26.20;46.00;;;;;;1548902;75;679;-56
2022/06/17 04:26:41;;;;;;;;;;;26.20;46.00;;;;;;1540999;75;1138;-59
2022/06/17 04:28:52;;;;;;;;;;;26.20;46.20;;;;;;1538728;75;954;-59
2022/06/17 04:30:53;;;;;;;;;;;26.20;46.20;;;;;;1537083;75;1573;-57
2022/06/17 04:33:02;;;;;;;;;;;26.20;46.20;;;;;;1552898;75;1865;-58
2022/06/17 04:35:05;;;;;;;;;;;26.20;46.10;;;;;;1532898;75;1564;-58
2022/06/17 04:37:09;;;;;;;;;;;26.20;46.10;;;;;;1532223;75;1967;-57
2022/06/17 04:39:18;;;;;;;;;;;26.20;46.20;;;;;;1537240;75;839;-58
2022/06/17 04:41:21;;;;;;;;;;;26.20;46.10;;;;;;1536439;75;677;-59
2022/06/17 04:43:36;;;;;;;;;;;26.20;46.10;;;;;;1528404;75;678;-57
2022/06/17 04:45:38;;;;;;;;;;;26.20;46.10;;;;;;1540785;75;1839;-60
2022/06/17 04:47:40;;;;;;;;;;;26.20;46.10;;;;;;1542371;75;1160;-59
2022/06/17 04:49:46;;;;;;;;;;;26.20;46.10;;;;;;1536240;75;1701;-59
2022/06/17 04:51:48;;;;;;;;;;;26.20;46.10;;;;;;1548222;75;781;-57
2022/06/17 04:53:49;;;;;;;;;;;26.20;46.10;;;;;;1536235;75;697;-58
2022/06/17 04:55:51;;;;;;;;;;;26.30;46.10;;;;;;1535302;75;1142;-58
2022/06/17 04:57:53;;;;;;;;;;;26.30;45.90;;;;;;1540930;75;1952;-60
2022/06/17 04:59:58;;;;;;;;;;;26.40;45.80;;;;;;1541442;75;689;-60
2022/06/17 05:01:59;;;;;;;;;;;26.30;45.80;;;;;;1549633;75;1689;-59
2022/06/17 05:04:02;;;;;;;;;;;26.30;45.90;;;;;;1530402;75;709;-58
2022/06/17 05:06:04;;;;;;;;;;;26.20;45.90;;;;;;1536797;75;1141;-58
2022/06/17 05:08:06;;;;;;;;;;;26.20;45.90;;;;;;1505071;77;812;-59
2022/06/17 05:10:09;;;;;;;;;;;26.20;46.00;;;;;;1546361;75;707;-59
2022/06/17 05:12:12;;;;;;;;;;;26.20;46.10;;;;;;1534270;75;687;-56
2022/06/17 05:14:19;;;;;;;;;;;26.20;46.10;;;;;;1534675;75;1054;-58
2022/06/17 05:16:22;;;;;;;;;;;26.10;46.10;;;;;;1538564;75;1384;-60
2022/06/17 05:18:24;;;;;;;;;;;26.10;46.10;;;;;;1536118;76;1907;-55
2022/06/17 05:20:26;;;;;;;;;;;26.10;46.10;;;;;;1547953;75;696;-59
2022/06/17 05:22:35;;;;;;;;;;;26.10;46.10;;;;;;1530564;76;734;-58
2022/06/17 05:24:37;;;;;;;;;;;26.10;46.00;;;;;;1523917;75;904;-59
2022/06/17 05:26:39;;;;;;;;;;;26.10;46.00;;;;;;1525861;76;1113;-60
2022/06/17 05:28:41;;;;;;;;;;;26.10;46.10;;;;;;1526815;76;753;-58
2022/06/17 05:30:45;;;;;;;;;;;26.20;46.00;;;;;;1523461;75;1545;-59
2022/06/17 05:32:50;;;;;;;;;;;26.10;46.00;;;;;;1521963;75;958;-56
2022/06/17 05:34:52;;;;;;;;;;;26.10;46.00;;;;;;1530480;76;700;-57
2022/06/17 05:36:56;;;;;;;;;;;26.10;46.00;;;;;;1534461;75;1107;-59
2022/06/17 05:38:57;;;;;;;;;;;26.10;46.00;;;;;;1533601;75;1931;-58
2022/06/17 05:40:59;;;;;;;;;;;26.10;45.90;;;;;;1528709;75;737;-57
2022/06/17 05:43:01;;;;;;;;;;;26.10;45.90;;;;;;1525403;76;687;-56
2022/06/17 05:45:03;;;;;;;;;;;26.20;46.00;;;;;;1532694;75;1560;-60
2022/06/17 05:47:05;;;;;;;;;;;26.20;46.00;;;;;;1532061;75;1109;-57
2022/06/17 05:49:07;;;;;;;;;;;26.20;46.00;;;;;;1524364;75;789;-59
2022/06/17 05:51:10;;;;;;;;;;;26.20;46.10;;;;;;1537164;75;920;-60
2022/06/17 05:53:12;;;;;;;;;;;26.20;46.00;;;;;;1529835;75;852;-58
2022/06/17 05:55:14;;;;;;;;;;;26.20;45.90;;;;;;1533581;75;775;-57
2022/06/17 05:57:16;;;;;;;;;;;26.20;46.00;;;;;;1525437;75;1941;-57
2022/06/17 05:59:18;;;;;;;;;;;26.20;46.00;;;;;;1529229;75;1548;-57
2022/06/17 06:01:20;;;;;;;;;;;26.20;46.00;;;;;;1522010;75;685;-60
2022/06/17 06:03:23;;;;;;;;;;;26.30;45.90;;;;;;1537024;75;688;-58
2022/06/17 06:05:26;;;;;;;;;;;26.20;45.80;;;;;;1526599;75;655;-58
2022/06/17 06:07:28;;;;;;;;;;;26.30;45.90;;;;;;1540750;75;1066;-59
2022/06/17 06:09:30;;;;;;;;;;;26.30;45.80;;;;;;1539175;75;704;-59
2022/06/17 06:11:31;;;;;;;;;;;26.30;45.80;;;;;;1538493;75;710;-57
2022/06/17 06:13:33;;;;;;;;;;;26.30;45.90;;;;;;1542946;75;1586;-57
2022/06/17 06:15:38;;;;;;;;;;;26.30;45.80;;;;;;1541944;75;1111;-59
2022/06/17 06:17:39;;;;;;;;;;;26.30;45.70;;;;;;1525972;75;1952;-56
2022/06/17 06:19:42;;;;;;;;;;;26.30;45.70;;;;;;1529072;75;691;-59
2022/06/17 06:21:44;;;;;;;;;;;26.30;45.60;;;;;;1520992;75;705;-59
2022/06/17 06:23:46;;;;;;;;;;;26.30;45.50;;;;;;1523652;75;686;-56
2022/06/17 06:25:48;;;;;;;;;;;26.30;45.30;;;;;;1534122;76;1147;-59
2022/06/17 06:27:50;;;;;;;;;;;26.40;45.10;;;;;;1533176;75;1588;-57
2022/06/17 06:29:52;;;;;;;;;;;26.40;44.90;;;;;;1530887;75;714;-57
2022/06/17 06:31:54;;;;;;;;;;;26.50;44.70;;;;;;1555595;75;828;-60
2022/06/17 06:33:56;;;;;;;;;;;26.50;44.40;;;;;;1537955;75;698;-58
2022/06/17 06:35:58;;;;;;;;;;;26.50;44.00;;;;;;1526839;75;1159;-57
2022/06/17 06:38:00;;;;;;;;;;;26.50;43.70;;;;;;1537040;75;1979;-58
2022/06/17 06:40:02;;;;;;;;;;;26.50;43.50;;;;;;1532137;75;716;-56
2022/06/17 06:42:04;;;;;;;;;;;26.50;43.30;;;;;;1542639;75;1583;-60
2022/06/17 06:44:06;;;;;;;;;;;26.50;43.10;;;;;;1530974;75;725;-57
2022/06/17 06:46:08;;;;;;;;;;;26.60;42.70;;;;;;1545316;75;1170;-58
2022/06/17 06:48:11;;;;;;;;;;;26.60;42.50;;;;;;1523316;75;704;-59
2022/06/17 06:50:13;;;;;;;;;;;26.60;42.50;;;;;;1526758;75;690;-57
2022/06/17 06:52:16;;;;;;;;;;;26.70;42.50;;;;;;1536170;75;989;-59
2022/06/17 06:54:18;;;;;;;;;;;26.70;42.50;;;;;;1525177;75;665;-60
2022/06/17 06:56:21;;;;;;;;;;;26.70;42.20;;;;;;1534433;75;1610;-60
2022/06/17 06:58:24;;;;;;;;;;;26.60;42.10;;;;;;1537947;75;1920;-56
2022/06/17 07:00:33;;;;;;;;;;;26.80;42.10;;;;;;1540001;75;719;-60
2022/06/17 07:02:35;;;;;;;;;;;26.70;41.90;;;;;;1534731;75;2056;-56
2022/06/17 07:04:37;;;;;;;;;;;26.70;41.70;;;;;;1537948;75;686;-58
2022/06/17 07:06:39;;;;;;;;;;;26.70;41.60;;;;;;1529340;75;1146;-59
2022/06/17 07:08:41;;;;;;;;;;;26.80;41.50;;;;;;1529854;75;1579;-57
2022/06/17 07:10:43;;;;;;;;;;;26.80;41.40;;;;;;1546602;75;734;-60
2022/06/17 07:12:45;;;;;;;;;;;26.80;41.40;;;;;;1531737;75;648;-55
2022/06/17 07:14:47;;;;;;;;;;;26.90;41.30;;;;;;1543613;75;776;-59
2022/06/17 07:16:49;;;;;;;;;;;26.80;41.40;;;;;;1534535;75;1197;-58
2022/06/17 07:18:51;;;;;;;;;;;26.90;41.30;;;;;;1532692;75;1944;-58
2022/06/17 07:20:54;;;;;;;;;;;26.90;41.00;;;;;;1533648;75;671;-57
2022/06/17 07:22:56;;;;;;;;;;;26.90;40.80;;;;;;1505117;77;1583;-59
2022/06/17 07:24:58;;;;;;;;;;;26.90;40.90;;;;;;1490897;78;769;-58
2022/06/17 07:26:59;;;;;;;;;;;27.00;41.50;;;;;;1509161;77;1149;-60
2022/06/17 07:29:01;;;;;;;;;;;26.90;40.70;;;;;;1527626;76;645;-57
2022/06/17 07:31:03;;;;;;;;;;;26.90;40.70;;;;;;1506459;76;764;-57
2022/06/17 07:33:05;;;;;;;;;;;27.00;40.60;;;;;;1490642;78;656;-57
2022/06/17 07:35:07;;;;;;;;;;;26.90;39.80;;;;;;1513543;77;713;-59
2022/06/17 07:41:50;;;;;;;;;;;27.00;40.70;;;;;;1486203;78;1645;-57
2022/06/17 07:43:52;;;;;;;;;;;26.90;40.10;;;;;;1488583;78;669;-57
2022/06/17 07:45:54;;;;;;;;;;;27.00;40.90;;;;;;1483616;78;1245;-59
2022/06/17 07:47:56;;;;;;;;;;;26.90;40.10;;;;;;1508672;77;780;-60
2022/06/17 07:49:58;;;;;;;;;;;26.90;40.10;;;;;;1505012;77;676;-57
2022/06/17 07:52:00;;;;;;;;;;;27.00;40.70;;;;;;1511266;77;1536;-60
2022/06/17 07:54:02;;;;;;;;;;;27.00;40.60;;;;;;1494669;77;722;-58
2022/06/17 07:56:04;;;;;;;;;;;27.10;40.50;;;;;;1513105;76;1111;-60
2022/06/17 07:58:06;;;;;;;;;;;27.10;39.30;;;;;;1486888;78;1941;-58
2022/06/17 08:00:09;;;;;;;;;;;27.10;39.70;;;;;;1516533;77;681;-58
2022/06/17 08:02:11;;;;;;;;;;;27.00;40.00;;;;;;1507451;77;694;-60
2022/06/17 08:04:12;;;;;;;;;;;27.10;40.00;;;;;;1504482;77;790;-59
2022/06/17 08:06:16;;;;;;;;;;;27.10;40.20;;;;;;1506288;76;1549;-57
2022/06/17 08:08:27;;;;;;;;;;;27.10;40.00;;;;;;1474879;78;812;-58
2022/06/17 08:10:24;;;;;;;;;;;27.10;39.70;;;;;;1480249;78;1385;-58
2022/06/17 08:12:25;;;;;;;;;;;27.10;40.00;;;;;;1505074;77;695;-57
2022/06/17 08:14:27;;;;;;;;;;;27.10;40.00;;;;;;1487293;78;668;-60
2022/06/17 08:16:29;;;;;;;;;;;27.10;40.00;;;;;;1477243;78;1197;-57
2022/06/17 08:18:31;;;;;;;;;;;27.10;40.00;;;;;;1468597;78;1948;-57
2022/06/17 08:20:33;;;;;;;;;;;27.10;40.00;;;;;;1471447;78;1609;-57
2022/06/17 08:22:37;;;;;;;;;;;27.20;39.90;;;;;;1495962;77;675;-58
2022/06/17 08:24:39;;;;;;;;;;;27.20;40.00;;;;;;1497020;77;690;-57
2022/06/17 08:26:40;;;;;;;;;;;27.20;40.00;;;;;;1470002;78;1126;-56
2022/06/17 08:28:42;;;;;;;;;;;27.10;39.90;;;;;;1490973;77;782;-58
2022/06/17 08:30:45;;;;;;;;;;;27.20;39.80;;;;;;1478112;78;739;-58
2022/06/17 08:32:48;;;;;;;;;;;27.10;39.70;;;;;;1483384;78;697;-58
2022/06/17 08:34:50;;;;;;;;;;;27.10;39.70;;;;;;1494288;77;1730;-56
2022/06/17 08:36:52;;;;;;;;;;;27.10;39.80;;;;;;1499670;77;1157;-60
2022/06/17 08:38:54;;;;;;;;;;;27.20;39.60;;;;;;1497364;77;1934;-56
2022/06/17 08:40:57;;;;;;;;;;;27.10;39.20;;;;;;1492961;77;683;-59
2022/06/17 08:43:01;;;;;;;;;;;27.00;39.20;;;;;;1492972;77;681;-58
2022/06/17 08:45:04;;;;;;;;;;;27.10;39.20;;;;;;1499836;77;829;-56
2022/06/17 08:47:11;;;;;;;;;;;27.10;39.10;;;;;;1497678;77;1972;-58
2022/06/17 08:49:29;;;;;;;;;;;27.10;38.90;;;;;;1511994;76;1936;-58
2022/06/17 08:51:33;;;;;;;;;;;27.10;38.80;;;;;;1514375;77;647;-57
2022/06/17 08:53:40;;;;;;;;;;;26.90;38.10;;;;;;1500058;77;716;-58
2022/06/17 08:55:49;;;;;;;;;;;27.00;38.60;;;;;;1477137;78;1781;-56
2022/06/17 08:57:56;;;;;;;;;;;27.00;38.60;;;;;;1478080;78;784;-57
2022/06/17 09:00:06;;;;;;;;;;;27.00;38.40;;;;;;1505137;77;1957;-58
2022/06/17 09:02:21;;;;;;;;;;;27.00;38.20;;;;;;1504736;77;1564;-56
2022/06/17 09:04:25;;;;;;;;;;;26.90;37.60;;;;;;1461025;78;1092;-60
2022/06/17 09:06:45;;;;;;;;;;;26.90;37.70;;;;;;1480690;78;1124;-59
2022/06/17 09:08:54;;;;;;;;;;;27.00;38.40;;;;;;1471375;78;769;-57
2022/06/17 09:11:10;;;;;;;;;;;26.90;37.60;;;;;;1506037;77;687;-57
2022/06/17 09:13:16;;;;;;;;;;;27.00;38.40;;;;;;1502823;77;1878;-58
2022/06/17 09:15:23;;;;;;;;;;;27.10;38.20;;;;;;1502073;77;1327;-57
2022/06/17 09:17:29;;;;;;;;;;;27.00;37.70;;;;;;1506863;77;1132;-59
2022/06/17 09:19:32;;;;;;;;;;;27.00;37.90;;;;;;1500994;77;1969;-57
2022/06/17 09:21:35;;;;;;;;;;;26.90;36.90;;;;;;1494511;77;823;-58
2022/06/17 09:23:38;;;;;;;;;;;26.90;36.80;;;;;;1506221;77;681;-60
2022/06/17 09:25:43;;;;;;;;;;;26.90;36.80;;;;;;1497882;77;726;-57
2022/06/17 09:27:49;;;;;;;;;;;26.90;36.80;;;;;;1494250;77;705;-57
2022/06/17 09:29:55;;;;;;;;;;;26.90;36.80;;;;;;1509133;77;1543;-58
2022/06/17 09:31:59;;;;;;;;;;;27.00;37.10;;;;;;1503317;77;738;-56
2022/06/17 09:34:14;;;;;;;;;;;26.90;36.40;;;;;;1499518;77;1568;-56
2022/06/17 09:36:17;;;;;;;;;;;26.90;36.40;;;;;;1498485;77;2081;-55
2022/06/17 09:38:27;;;;;;;;;;;26.90;35.60;;;;;;1496955;77;1933;-58
2022/06/17 09:40:30;;;;;;;;;;;26.90;36.50;;;;;;1495163;77;694;-55
2022/06/17 09:42:40;;;;;;;;;;;26.90;36.10;;;;;;1499312;77;1763;-57
2022/06/17 09:44:43;;;;;;;;;;;26.80;36.00;;;;;;1510556;77;1554;-57
2022/06/17 09:46:47;;;;;;;;;;;26.80;36.10;;;;;;1507035;77;1084;-56
2022/06/17 09:48:50;;;;;;;;;;;26.80;36.10;;;;;;1495579;77;694;-57
2022/06/17 09:50:59;;;;;;;;;;;26.80;36.00;;;;;;1505971;77;708;-58
2022/06/17 09:53:05;;;;;;;;;;;26.70;35.90;;;;;;1495132;77;701;-58
2022/06/17 09:55:09;;;;;;;;;;;26.80;35.80;;;;;;1505661;77;909;-57
2022/06/17 09:57:15;;;;;;;;;;;26.80;35.80;;;;;;1504683;77;1139;-57
2022/06/17 09:59:19;;;;;;;;;;;26.70;35.70;;;;;;1506717;77;1922;-56
2022/06/17 10:01:21;;;;;;;;;;;26.60;35.70;;;;;;1504310;77;1823;-56
2022/06/17 10:03:27;;;;;;;;;;;26.80;35.70;;;;;;1498446;77;631;-58
2022/06/17 10:05:36;;;;;;;;;;;26.80;35.30;;;;;;1502055;77;745;-57
2022/06/17 10:07:43;;;;;;;;;;;26.70;35.40;;;;;;1502219;77;1066;-58
2022/06/17 10:09:46;;;;;;;;;;;26.70;35.00;;;;;;1499262;77;1988;-56
2022/06/17 10:11:55;;;;;;;;;;;26.70;34.70;;;;;;1501297;77;1823;-57
2022/06/17 10:14:02;;;;;;;;;;;26.70;34.70;;;;;;1498910;77;790;-57
2022/06/17 10:18:32;;;;;;;;;;;26.60;34.80;;;;;;1502164;77;1632;-57
2022/06/17 10:20:39;;;;;;;;;;;26.60;34.90;;;;;;1502227;77;1934;-57
2022/06/17 10:22:42;;;;;;;;;;;26.50;34.70;;;;;;1494540;77;769;-55
2022/06/17 10:25:02;;;;;;;;;;;26.50;35.00;;;;;;1498154;77;2118;-57
2022/06/17 10:27:06;;;;;;;;;;;26.50;34.60;;;;;;1513126;77;1619;-56
2022/06/17 10:29:25;;;;;;;;;;;26.50;34.70;;;;;;1504020;77;743;-56
2022/06/17 10:31:37;;;;;;;;;;;26.50;34.70;;;;;;1495585;77;742;-55
2022/06/17 10:33:41;;;;;;;;;;;26.50;34.70;;;;;;1502617;77;677;-57
2022/06/17 10:35:44;;;;;;;;;;;26.50;34.70;;;;;;1499165;77;1132;-56
2022/06/17 10:37:46;;;;;;;;;;;26.50;34.60;;;;;;1499879;77;689;-56
2022/06/17 10:39:48;;;;;;;;;;;26.50;34.60;;;;;;1490538;77;1946;-57
2022/06/17 10:41:50;;;;;;;;;;;26.50;34.70;;;;;;1505127;77;697;-55
2022/06/17 10:43:52;;;;;;;;;;;26.40;34.80;;;;;;1499971;77;727;-57
2022/06/17 10:45:54;;;;;;;;;;;26.50;35.00;;;;;;1506972;77;1156;-55
2022/06/17 10:48:00;;;;;;;;;;;26.50;34.60;;;;;;1504620;77;838;-56
2022/06/17 10:50:06;;;;;;;;;;;26.50;34.90;;;;;;1503978;77;2070;-58
2022/06/17 10:52:13;;;;;;;;;;;26.40;33.40;;;;;;1505192;77;1544;-55
2022/06/17 10:54:16;;;;;;;;;;;26.50;34.70;;;;;;1509247;77;1816;-56
2022/06/17 10:56:20;;;;;;;;;;;26.40;34.80;;;;;;1506978;77;1853;-56
2022/06/17 10:58:27;;;;;;;;;;;26.50;35.00;;;;;;1509303;77;1464;-58
2022/06/17 11:00:30;;;;;;;;;;;26.50;34.80;;;;;;1502440;77;1927;-55
2022/06/17 11:02:32;;;;;;;;;;;26.50;34.50;;;;;;1510417;77;744;-55
2022/06/17 11:04:35;;;;;;;;;;;26.50;34.60;;;;;;1500640;77;771;-58
2022/06/17 11:06:40;;;;;;;;;;;26.50;34.70;;;;;;1508033;77;1117;-58
2022/06/17 11:08:56;;;;;;;;;;;26.50;34.60;;;;;;1498826;77;1615;-56
2022/06/17 11:12:02;;;;;;;;;;;26.50;34.40;;;;;;1504693;77;666;-58
2022/06/17 11:13:07;;;;;;;;;;;26.40;34.60;;;;;;1500666;77;1491;-59
2022/06/17 11:15:17;;;;;;;;;;;26.40;34.60;;;;;;1507251;77;680;-57
2022/06/17 11:17:37;;;;;;;;;;;26.40;34.70;;;;;;1501808;77;1765;-58
2022/06/17 11:19:39;;;;;;;;;;;26.40;34.80;;;;;;1503468;77;1969;-57
2022/06/17 11:21:45;;;;;;;;;;;26.40;34.70;;;;;;1505173;77;1196;-55
2022/06/17 11:23:47;;;;;;;;;;;26.40;34.80;;;;;;1499971;77;723;-60
2022/06/17 11:25:50;;;;;;;;;;;26.50;34.70;;;;;;1501218;77;1164;-57
2022/06/17 11:27:53;;;;;;;;;;;26.40;34.80;;;;;;1508190;77;750;-57
2022/06/17 11:29:55;;;;;;;;;;;26.40;34.80;;;;;;1506271;77;707;-58
2022/06/17 11:31:59;;;;;;;;;;;26.50;34.90;;;;;;1507557;77;995;-60
2022/06/17 11:34:02;;;;;;;;;;;26.50;34.90;;;;;;1508401;77;1437;-58
2022/06/17 11:36:09;;;;;;;;;;;26.50;34.50;;;;;;1508430;77;1685;-57
2022/06/17 11:38:12;;;;;;;;;;;26.40;34.70;;;;;;1501871;77;1847;-58
2022/06/17 11:40:21;;;;;;;;;;;26.40;34.70;;;;;;1504069;77;1930;-60
2022/06/17 11:42:24;;;;;;;;;;;26.30;34.90;;;;;;1508954;77;1799;-59
2022/06/17 11:44:26;;;;;;;;;;;26.40;34.90;;;;;;1510123;77;715;-58
2022/06/17 11:46:33;;;;;;;;;;;26.30;34.70;;;;;;1503106;77;1096;-58
2022/06/17 11:48:36;;;;;;;;;;;26.40;35.00;;;;;;1512872;77;1682;-55
2022/06/17 11:50:40;;;;;;;;;;;26.40;35.10;;;;;;1512519;77;1705;-58
2022/06/17 11:52:42;;;;;;;;;;;26.40;35.10;;;;;;1514415;77;788;-59
2022/06/17 11:54:49;;;;;;;;;;;26.40;35.20;;;;;;1494322;77;739;-57
2022/06/17 11:56:51;;;;;;;;;;;26.40;35.10;;;;;;1512117;77;1269;-60
2022/06/17 11:58:55;;;;;;;;;;;26.40;35.10;;;;;;1515189;77;753;-59
2022/06/17 12:00:58;;;;;;;;;;;26.40;34.90;;;;;;1505255;77;1921;-56
2022/06/17 12:03:00;;;;;;;;;;;26.40;35.10;;;;;;1504486;77;716;-57
2022/06/17 12:05:10;;;;;;;;;;;26.40;35.00;;;;;;1509464;77;1395;-57
2022/06/17 12:07:29;;;;;;;;;;;26.30;34.70;;;;;;1509280;77;1160;-55
2022/06/17 12:09:32;;;;;;;;;;;26.30;35.00;;;;;;1498164;77;726;-54
2022/06/17 12:11:35;;;;;;;;;;;26.30;35.20;;;;;;1510770;77;686;-58
2022/06/17 12:13:42;;;;;;;;;;;26.30;35.30;;;;;;1508703;77;1870;-59
2022/06/17 12:15:45;;;;;;;;;;;26.30;35.40;;;;;;1509273;77;1132;-59
2022/06/17 12:17:46;;;;;;;;;;;26.40;35.50;;;;;;1511654;77;793;-58
2022/06/17 12:19:49;;;;;;;;;;;26.40;34.90;;;;;;1500236;77;1950;-59
2022/06/17 12:22:01;;;;;;;;;;;26.30;35.30;;;;;;1502057;77;694;-58
2022/06/17 12:24:14;;;;;;;;;;;26.30;35.20;;;;;;1502033;77;2083;-58